Time;durP1;ratioP1;P1;durP2;ratioP2;P2;SDS_P1;SDS_P2;PMS_P1;PMS_P2;Temp;Humidity;BMP_temperature;BMP_pressure;BME280_temperature;BME280_humidity;BME280_pressure;Samples;Min_cycle;Max_cycle;Signal;HPM_P1;HPM_P2
2022/04/11 00:01:54;;;;;;;3.08;2.28;;;;;;;6.61;100.00;99848.16;5030908;28;20183;-78
2022/04/11 00:04:20;;;;;;;2.35;1.77;;;;;;;6.65;100.00;99834.63;5030660;28;20029;-77
2022/04/11 00:06:45;;;;;;;4.22;2.75;;;;;;;6.38;100.00;99809.59;5030908;28;20021;-74
2022/04/11 00:09:10;;;;;;;2.90;1.98;;;;;;;6.41;100.00;99829.34;5029667;28;20116;-79
2022/04/11 00:11:36;;;;;;;3.05;1.75;;;;;;;6.31;100.00;99838.31;5030954;28;20025;-77
2022/04/11 00:14:04;;;;;;;1.50;1.20;;;;;;;6.27;100.00;99827.06;5030990;28;20552;-74
2022/04/11 00:16:30;;;;;;;2.53;1.30;;;;;;;6.24;100.00;99810.66;5030675;28;20058;-74
2022/04/11 00:18:55;;;;;;;0.70;0.70;;;;;;;6.45;100.00;99867.13;5029651;28;20021;-76
2022/04/11 00:21:20;;;;;;;1.63;1.27;;;;;;;6.62;100.00;99860.16;5030899;28;20028;-78
2022/04/11 00:23:46;;;;;;;2.45;1.77;;;;;;;6.53;100.00;99860.66;5030711;28;20021;-76
2022/04/11 00:26:11;;;;;;;0.90;0.70;;;;;;;6.55;100.00;99859.00;5030561;28;20033;-76
2022/04/11 00:28:37;;;;;;;0.40;0.40;;;;;;;6.44;100.00;99848.31;5030497;28;20481;-76
2022/04/11 00:31:02;;;;;;;0.80;0.80;;;;;;;6.46;100.00;99853.50;5030370;28;20048;-76
2022/04/11 00:33:29;;;;;;;0.75;0.75;;;;;;;6.50;100.00;99870.75;5030291;28;20045;-77
2022/04/11 00:35:54;;;;;;;4.25;3.85;;;;;;;6.40;100.00;99872.03;5030658;28;20040;-76
2022/04/11 00:38:20;;;;;;;1.65;1.30;;;;;;;6.15;100.00;99870.09;5030529;28;20021;-76
2022/04/11 00:40:45;;;;;;;3.38;1.90;;;;;;;5.87;100.00;99825.25;5033052;28;20497;-79
2022/04/11 00:43:32;;;;;;;4.63;2.50;;;;;;;6.19;100.00;99858.28;5051481;28;20404;-78
2022/04/11 00:45:57;;;;;;;1.10;0.95;;;;;;;6.16;100.00;99859.03;5051197;28;20492;-78
2022/04/11 00:48:23;;;;;;;0.70;0.70;;;;;;;6.04;100.00;99838.84;5051589;28;20036;-78
2022/04/11 00:50:49;;;;;;;0.70;0.70;;;;;;;6.18;100.00;99860.00;5051051;28;20025;-74
2022/04/11 00:53:15;;;;;;;0.70;0.70;;;;;;;6.22;100.00;99860.97;5051311;28;20036;-74
2022/04/11 00:55:42;;;;;;;1.10;0.95;;;;;;;6.09;100.00;99845.06;5051146;28;20115;-80
2022/04/11 00:58:07;;;;;;;0.70;0.70;;;;;;;6.09;100.00;99841.63;5051272;28;20057;-78
2022/04/11 01:00:34;;;;;;;0.80;0.80;;;;;;;6.11;100.00;99865.63;5051041;28;20052;-77
2022/04/11 01:03:00;;;;;;;0.75;0.75;;;;;;;5.76;100.00;99847.81;5050302;28;20452;-74
2022/04/11 01:05:25;;;;;;;0.60;0.60;;;;;;;5.86;100.00;99866.16;5051048;28;20036;-74
2022/04/11 01:07:51;;;;;;;0.60;0.60;;;;;;;5.91;100.00;99875.81;5051123;28;20563;-74
2022/04/11 01:10:16;;;;;;;1.10;0.68;;;;;;;5.81;100.00;99860.84;5051065;28;20504;-75
2022/04/11 01:12:42;;;;;;;0.80;0.80;;;;;;;5.62;100.00;99865.09;5042754;28;20029;-74
2022/04/11 01:15:09;;;;;;;0.95;0.80;;;;;;;5.67;100.00;99881.56;5029170;28;20057;-73
2022/04/11 01:17:36;;;;;;;2.28;0.60;;;;;;;5.54;100.00;99865.53;5029303;28;20026;-76
2022/04/11 01:20:13;;;;;;;0.45;0.45;;;;;;;5.78;100.00;99878.59;5029623;28;20037;-73
2022/04/11 01:22:40;;;;;;;0.40;0.40;;;;;;;5.58;100.00;99847.84;5029466;28;20397;-75
2022/04/11 01:25:06;;;;;;;0.65;0.65;;;;;;;5.63;100.00;99871.09;5044893;28;20374;-75
2022/04/11 01:27:32;;;;;;;0.63;0.50;;;;;;;5.69;100.00;99875.63;5029467;28;20061;-74
2022/04/11 01:29:58;;;;;;;0.50;0.50;;;;;;;5.45;100.00;99866.00;5029349;28;20430;-75
2022/04/11 01:32:23;;;;;;;0.38;0.38;;;;;;;5.32;100.00;99838.91;5029140;28;20029;-73
2022/04/11 01:34:48;;;;;;;1.63;0.60;;;;;;;5.41;100.00;99858.94;5029396;28;20024;-74
2022/04/11 01:37:14;;;;;;;0.63;0.50;;;;;;;5.57;100.00;99886.16;5029010;28;20099;-74
2022/04/11 01:39:39;;;;;;;0.60;0.40;;;;;;;5.42;100.00;99883.75;5029450;28;20034;-73
2022/04/11 01:42:05;;;;;;;0.40;0.40;;;;;;;5.32;100.00;99860.28;5028690;28;20025;-76
2022/04/11 01:44:30;;;;;;;0.50;0.50;;;;;;;5.32;100.00;99883.31;5029786;28;20034;-74
2022/04/11 01:46:56;;;;;;;0.40;0.40;;;;;;;5.29;100.00;99869.50;5030023;28;20061;-75
2022/04/11 01:49:21;;;;;;;0.28;0.28;;;;;;;5.47;100.00;99888.28;5029146;28;20545;-76
2022/04/11 01:51:47;;;;;;;0.40;0.40;;;;;;;5.41;100.00;99879.41;5029243;28;20016;-75
2022/04/11 01:54:12;;;;;;;0.57;0.40;;;;;;;5.55;100.00;99896.34;5029144;28;20508;-78
2022/04/11 01:56:38;;;;;;;0.30;0.30;;;;;;;5.43;100.00;99899.19;5027369;28;20065;-75
2022/04/11 01:59:03;;;;;;;0.30;0.30;;;;;;;5.48;100.00;99920.78;5029122;28;21944;-74
2022/04/11 02:01:28;;;;;;;15.48;9.00;;;;;;;5.30;100.00;99922.44;5028829;28;20044;-73
2022/04/11 02:03:54;;;;;;;1.40;0.93;;;;;;;5.36;100.00;99927.84;5029173;28;20026;-73
2022/04/11 02:06:19;;;;;;;1.05;1.05;;;;;;;5.23;100.00;99928.06;5029279;28;20402;-73
2022/04/11 02:08:45;;;;;;;2.03;1.83;;;;;;;5.23;100.00;99934.03;5028921;28;20025;-73
2022/04/11 02:11:11;;;;;;;6.10;5.50;;;;;;;5.11;100.00;99920.63;5028706;28;20508;-74
2022/04/11 02:13:36;;;;;;;5.00;4.47;;;;;;;4.94;100.00;99930.91;5027206;28;20099;-73
2022/04/11 02:16:02;;;;;;;6.28;3.42;;;;;;;5.00;100.00;99932.91;5028821;28;20102;-74
2022/04/11 02:18:28;;;;;;;3.17;1.80;;;;;;;5.05;100.00;99956.13;5029044;28;20456;-72
2022/04/11 02:20:53;;;;;;;4.20;2.45;;;;;;;5.13;100.00;99947.19;5028534;28;20473;-72
2022/04/11 02:23:18;;;;;;;5.05;2.53;;;;;;;5.22;100.00;99945.09;5029068;28;20583;-70
2022/04/11 02:25:44;;;;;;;0.30;0.30;;;;;;;5.10;100.00;99954.72;5028763;28;20022;-74
2022/04/11 02:28:10;;;;;;;0.22;0.22;;;;;;;4.86;100.00;99933.06;5028124;28;20033;-73
2022/04/11 02:30:36;;;;;;;0.25;0.25;;;;;;;4.98;100.00;99943.03;5028533;28;20409;-72
2022/04/11 02:33:01;;;;;;;0.30;0.30;;;;;;;4.92;100.00;99945.31;5028841;28;20037;-74
2022/04/11 02:35:27;;;;;;;0.30;0.30;;;;;;;4.94;100.00;99950.50;5029794;28;20041;-74
2022/04/11 02:37:53;;;;;;;0.20;0.20;;;;;;;4.98;100.00;99948.16;5029035;28;20037;-72
2022/04/11 02:40:19;;;;;;;0.10;0.10;;;;;;;4.89;100.00;99964.72;5029247;28;20032;-73
2022/04/11 02:42:46;;;;;;;0.30;0.30;;;;;;;4.92;100.00;99973.44;5032275;28;20403;-70
2022/04/11 02:45:13;;;;;;;0.65;0.25;;;;;;;4.88;100.00;99975.75;5032397;28;20021;-74
2022/04/11 02:47:39;;;;;;;0.15;0.15;;;;;;;4.92;100.00;99975.09;5032241;28;20100;-74
2022/04/11 02:50:05;;;;;;;0.35;0.35;;;;;;;4.98;100.00;99976.28;5032466;28;20401;-72
2022/04/11 02:52:32;;;;;;;0.30;0.30;;;;;;;5.01;100.00;99976.47;5032128;28;21563;-73
2022/04/11 02:54:58;;;;;;;0.20;0.20;;;;;;;4.73;100.00;99957.94;5040085;28;20064;-71
2022/04/11 02:57:24;;;;;;;0.35;0.35;;;;;;;4.87;100.00;99979.97;5051736;28;20025;-71
2022/04/11 02:59:50;;;;;;;0.30;0.30;;;;;;;4.90;100.00;99982.72;5052094;28;20036;-74
2022/04/11 03:02:16;;;;;;;8.50;1.58;;;;;;;4.93;100.00;99990.53;5051339;28;20032;-79
2022/04/11 03:04:42;;;;;;;0.57;0.50;;;;;;;4.67;100.00;99946.59;5053248;28;20511;-77
2022/04/11 03:07:08;;;;;;;0.90;0.40;;;;;;;4.79;100.00;99984.69;5053303;28;20033;-80
2022/04/11 03:09:33;;;;;;;0.40;0.40;;;;;;;4.69;100.00;99973.09;5053121;28;20033;-77
2022/04/11 03:11:59;;;;;;;1.10;0.50;;;;;;;4.97;100.00;100009.47;5052984;28;20110;-76
2022/04/11 03:14:25;;;;;;;1.17;0.30;;;;;;;4.90;100.00;100022.75;5053227;28;20444;-77
2022/04/11 03:16:50;;;;;;;0.30;0.30;;;;;;;4.89;100.00;100011.63;5038257;28;20409;-77
2022/04/11 03:19:16;;;;;;;0.40;0.40;;;;;;;4.71;100.00;99986.00;5031853;28;20075;-77
2022/04/11 03:21:41;;;;;;;0.93;0.60;;;;;;;4.77;100.00;100019.56;5031989;28;20033;-76
2022/04/11 03:24:07;;;;;;;1.65;0.40;;;;;;;4.85;100.00;100032.75;5033015;28;20052;-76
2022/04/11 03:26:33;;;;;;;0.30;0.30;;;;;;;4.73;100.00;100020.19;5032978;28;20053;-76
2022/04/11 03:28:58;;;;;;;0.63;0.52;;;;;;;4.86;100.00;100034.50;5032765;28;20033;-76
2022/04/11 03:31:23;;;;;;;0.65;0.60;;;;;;;4.97;100.00;100035.94;5032874;28;20036;-76
2022/04/11 03:33:49;;;;;;;0.43;0.43;;;;;;;4.92;100.00;100047.63;5032941;28;20036;-75
2022/04/11 03:36:14;;;;;;;0.45;0.45;;;;;;;5.04;100.00;100047.38;5031506;28;20088;-76
2022/04/11 03:38:40;;;;;;;1.85;1.45;;;;;;;4.96;100.00;100049.53;5033181;28;20056;-76
2022/04/11 03:41:05;;;;;;;0.65;0.65;;;;;;;5.08;100.00;100053.53;5032604;28;20037;-76
2022/04/11 03:43:30;;;;;;;1.58;1.48;;;;;;;5.14;100.00;100038.50;5032845;28;20036;-76
2022/04/11 03:45:56;;;;;;;3.08;2.78;;;;;;;5.11;100.00;100059.69;5032805;28;20117;-76
2022/04/11 03:48:21;;;;;;;3.83;2.90;;;;;;;5.23;100.00;100069.66;5032627;28;20030;-76
2022/04/11 03:50:47;;;;;;;3.50;3.20;;;;;;;5.19;100.00;100073.75;5038104;28;20037;-74
2022/04/11 03:53:12;;;;;;;3.90;2.35;;;;;;;4.89;100.00;100024.44;5044768;28;20044;-77
2022/04/11 03:55:38;;;;;;;2.28;1.30;;;;;;;5.26;100.00;100074.97;5044502;28;20033;-77
2022/04/11 03:58:05;;;;;;;2.80;0.80;;;;;;;5.11;100.00;100082.72;5044988;28;20045;-76
2022/04/11 04:00:30;;;;;;;0.77;0.75;;;;;;;4.88;100.00;100045.69;5042500;28;20071;-74
2022/04/11 04:03:10;;;;;;;0.63;0.60;;;;;;;5.25;100.00;100091.13;5034338;28;20429;-75
2022/04/11 04:05:40;;;;;;;0.60;0.60;;;;;;;5.19;100.00;100090.78;5032284;28;20168;-75
2022/04/11 04:08:06;;;;;;;0.63;0.63;;;;;;;5.29;100.00;100100.69;5032022;28;20033;-75
2022/04/11 04:10:32;;;;;;;3.53;2.80;;;;;;;5.02;100.00;100061.75;5031753;28;20060;-75
2022/04/11 04:12:58;;;;;;;5.18;4.32;;;;;;;5.27;100.00;100099.78;5032087;28;20029;-75
2022/04/11 04:15:24;;;;;;;3.33;2.30;;;;;;;5.23;100.00;100108.06;5031808;28;20523;-75
2022/04/11 04:17:52;;;;;;;2.03;1.70;;;;;;;5.29;100.00;100117.75;5042973;28;20132;-77
2022/04/11 04:20:17;;;;;;;1.25;0.90;;;;;;;5.04;100.00;100070.41;5051862;28;20094;-77
2022/04/11 04:22:43;;;;;;;1.73;0.95;;;;;;;5.41;100.00;100125.19;5051065;28;20028;-78
2022/04/11 04:25:08;;;;;;;1.08;0.98;;;;;;;5.47;100.00;100134.06;5051820;28;20028;-76
2022/04/11 04:27:34;;;;;;;1.00;0.95;;;;;;;5.50;100.00;100123.97;5048334;28;20053;-74
2022/04/11 04:30:00;;;;;;;1.08;0.98;;;;;;;5.48;100.00;100120.47;5040735;28;20138;-75
2022/04/11 04:32:26;;;;;;;0.80;0.80;;;;;;;5.54;100.00;100136.97;5042239;28;20052;-74
2022/04/11 04:34:54;;;;;;;1.00;0.93;;;;;;;5.43;100.00;100139.84;5033330;28;20025;-72
2022/04/11 04:37:20;;;;;;;1.73;0.95;;;;;;;5.56;100.00;100154.16;5022212;28;20043;-74
2022/04/11 04:39:45;;;;;;;1.23;1.08;;;;;;;5.51;100.00;100141.09;5050477;28;20107;-74
2022/04/11 04:42:11;;;;;;;2.50;1.40;;;;;;;5.41;100.00;100135.41;5051691;28;20079;-75
2022/04/11 04:44:42;;;;;;;2.15;0.98;;;;;;;5.55;100.00;100169.44;5051755;28;20482;-72
2022/04/11 04:47:10;;;;;;;1.42;0.90;;;;;;;5.46;100.00;100154.50;5050181;28;20036;-74
2022/04/11 04:49:35;;;;;;;1.00;0.90;;;;;;;5.60;100.00;100173.13;5051222;28;20025;-73
2022/04/11 04:52:01;;;;;;;0.93;0.80;;;;;;;5.58;100.00;100180.75;5051775;28;20031;-74
2022/04/11 04:54:27;;;;;;;2.38;1.50;;;;;;;5.54;100.00;100172.81;5051542;28;20021;-73
2022/04/11 04:56:52;;;;;;;4.15;2.20;;;;;;;5.53;100.00;100153.13;5051032;28;20465;-72
2022/04/11 04:59:17;;;;;;;26.75;10.00;;;;;;;5.75;100.00;100181.59;5051187;28;20074;-76
2022/04/11 05:01:46;;;;;;;21.00;7.97;;;;;;;5.79;100.00;100196.31;5051245;28;20029;-74
2022/04/11 05:04:12;;;;;;;6.32;2.50;;;;;;;5.76;100.00;100201.28;5050750;28;20029;-74
2022/04/11 05:06:37;;;;;;;5.47;1.92;;;;;;;5.75;100.00;100190.97;5050953;28;20028;-74
2022/04/11 05:09:03;;;;;;;1.70;1.10;;;;;;;5.51;100.00;100205.13;5050805;28;20075;-74
2022/04/11 05:11:28;;;;;;;4.00;1.60;;;;;;;5.63;100.00;100212.59;5051197;28;20033;-74
2022/04/11 05:13:53;;;;;;;2.50;1.40;;;;;;;5.55;100.00;100195.94;5050971;28;20396;-74
2022/04/11 05:16:19;;;;;;;2.17;1.40;;;;;;;5.66;100.00;100222.97;5051013;28;20501;-74
2022/04/11 05:18:47;;;;;;;1.20;1.05;;;;;;;5.60;100.00;100225.22;5050749;28;20020;-75
2022/04/11 05:21:13;;;;;;;1.98;1.10;;;;;;;5.72;100.00;100229.22;5051146;28;20082;-74
2022/04/11 05:23:38;;;;;;;1.83;1.08;;;;;;;5.64;100.00;100214.31;5051242;28;20032;-74
2022/04/11 05:26:07;;;;;;;1.00;0.85;;;;;;;5.74;100.00;100232.75;5049562;28;20115;-75
2022/04/11 05:28:33;;;;;;;0.70;0.70;;;;;;;5.79;100.00;100227.03;5050892;28;20450;-74
2022/04/11 05:30:59;;;;;;;1.40;0.88;;;;;;;5.56;100.00;100184.88;5051068;28;20128;-73
2022/04/11 05:33:24;;;;;;;1.63;1.00;;;;;;;5.82;100.00;100216.97;5050648;28;20033;-74
2022/04/11 05:35:50;;;;;;;1.25;0.98;;;;;;;5.99;100.00;100234.94;5031933;28;20393;-74
2022/04/11 05:38:16;;;;;;;1.48;1.00;;;;;;;5.74;100.00;100202.88;5050708;28;20029;-72
2022/04/11 05:40:46;;;;;;;7.68;5.13;;;;;;;5.98;100.00;100239.19;5050545;28;20488;-73
2022/04/11 05:43:14;;;;;;;3.80;2.20;;;;;;;6.12;100.00;100241.59;5050803;28;20416;-74
2022/04/11 05:45:40;;;;;;;1.23;1.13;;;;;;;6.01;100.00;100237.56;5050644;28;20032;-74
2022/04/11 05:48:06;;;;;;;2.13;1.92;;;;;;;6.18;100.00;100261.50;5050384;28;20025;-74
2022/04/11 05:50:32;;;;;;;1.25;1.08;;;;;;;6.05;100.00;100206.19;5050771;28;20098;-75
2022/04/11 05:52:57;;;;;;;2.00;1.80;;;;;;;6.31;100.00;100240.81;5050366;28;20029;-74
2022/04/11 05:55:23;;;;;;;3.58;2.47;;;;;;;6.46;100.00;100251.84;5050453;28;20029;-74
2022/04/11 05:57:49;;;;;;;4.60;1.45;;;;;;;6.56;100.00;100258.31;5050424;28;20025;-74
2022/04/11 06:00:16;;;;;;;3.05;1.80;;;;;;;6.36;100.00;100223.13;5049784;28;20025;-74
2022/04/11 06:02:42;;;;;;;1.77;1.20;;;;;;;6.64;100.00;100267.28;5050269;28;20025;-74
2022/04/11 06:05:09;;;;;;;2.10;1.42;;;;;;;6.68;100.00;100268.31;5050518;28;20040;-74
2022/04/11 06:07:35;;;;;;;1.17;1.08;;;;;;;6.70;100.00;100264.13;5050863;28;20025;-74
2022/04/11 06:10:01;;;;;;;1.67;1.58;;;;;;;6.84;98.77;100281.88;5050187;28;20024;-75
2022/04/11 06:12:26;;;;;;;1.33;1.23;;;;;;;6.89;99.25;100280.41;5031336;28;20041;-74
2022/04/11 06:14:55;;;;;;;1.95;1.30;;;;;;;6.87;97.52;100282.03;5050527;28;20033;-74
2022/04/11 06:17:24;;;;;;;2.40;1.52;;;;;;;6.88;96.21;100291.47;5053789;28;20057;-75
2022/04/11 06:19:51;;;;;;;2.45;1.80;;;;;;;6.80;99.05;100284.31;5054556;28;20100;-75
2022/04/11 06:22:17;;;;;;;1.58;1.33;;;;;;;6.89;97.59;100299.28;5054397;28;20032;-74
2022/04/11 06:24:43;;;;;;;2.03;1.50;;;;;;;6.91;97.34;100295.06;5054178;28;20021;-74
2022/04/11 06:27:09;;;;;;;3.55;1.88;;;;;;;6.95;97.29;100304.72;5054227;28;20043;-77
2022/04/11 06:29:35;;;;;;;1.63;1.52;;;;;;;6.97;96.45;100326.16;5053947;28;20107;-74
2022/04/11 06:32:04;;;;;;;2.95;1.67;;;;;;;6.85;95.37;100309.31;5054113;28;20028;-74
2022/04/11 06:34:30;;;;;;;3.85;1.73;;;;;;;6.91;93.00;100304.47;5054281;28;20391;-73
2022/04/11 06:36:56;;;;;;;3.72;1.60;;;;;;;6.96;94.69;100320.97;5053967;28;20036;-71
2022/04/11 06:39:22;;;;;;;3.35;2.20;;;;;;;7.03;95.81;100324.72;5054006;28;20037;-75
2022/04/11 06:41:47;;;;;;;2.05;1.77;;;;;;;7.10;96.03;100322.53;5053819;28;20459;-74
2022/04/11 06:44:13;;;;;;;3.00;1.85;;;;;;;6.97;94.50;100326.16;5053724;28;20025;-74
2022/04/11 06:46:38;;;;;;;6.13;2.25;;;;;;;7.06;95.46;100341.13;5053894;28;20032;-74
2022/04/11 06:49:04;;;;;;;2.90;1.60;;;;;;;7.06;93.98;100346.28;5053594;28;20029;-74
2022/04/11 06:51:29;;;;;;;3.13;1.85;;;;;;;7.09;93.65;100342.97;5053771;28;20037;-74
2022/04/11 06:53:54;;;;;;;2.67;1.70;;;;;;;7.07;94.87;100350.59;5053749;28;20029;-74
2022/04/11 06:56:20;;;;;;;2.75;1.88;;;;;;;7.12;94.25;100344.00;5053524;28;20079;-74
2022/04/11 06:58:45;;;;;;;6.25;1.90;;;;;;;7.22;94.55;100345.34;5053637;28;20473;-77
2022/04/11 07:01:11;;;;;;;2.45;1.70;;;;;;;7.34;93.21;100352.78;5053479;28;20025;-75
2022/04/11 07:03:36;;;;;;;2.47;1.50;;;;;;;7.17;94.57;100303.16;5053370;28;20044;-79
2022/04/11 07:06:01;;;;;;;3.00;1.70;;;;;;;7.35;91.85;100331.44;5053096;28;20457;-74
2022/04/11 07:08:27;;;;;;;1.58;1.40;;;;;;;7.47;90.21;100354.22;5053530;28;20037;-74
2022/04/11 07:10:52;;;;;;;2.60;1.60;;;;;;;7.28;90.52;100316.53;5052086;28;20032;-74
2022/04/11 07:13:18;;;;;;;1.75;1.35;;;;;;;7.37;90.73;100326.34;5053211;28;20086;-74
2022/04/11 07:15:43;;;;;;;4.47;1.77;;;;;;;7.63;91.48;100362.66;5051678;28;20128;-74
2022/04/11 07:18:08;;;;;;;3.03;1.80;;;;;;;7.72;90.59;100345.97;5053468;28;20489;-75
2022/04/11 07:20:34;;;;;;;3.05;2.13;;;;;;;7.84;91.64;100379.09;5053157;28;20515;-74
2022/04/11 07:22:59;;;;;;;4.90;1.80;;;;;;;8.03;89.29;100380.81;5053156;28;20040;-70
2022/04/11 07:25:25;;;;;;;2.45;1.50;;;;;;;8.11;89.26;100378.56;5048419;28;20092;-72
2022/04/11 07:27:51;;;;;;;1.83;1.30;;;;;;;8.11;88.74;100381.16;5032744;28;20036;-72
2022/04/11 07:30:17;;;;;;;3.35;1.77;;;;;;;8.13;87.14;100387.25;5033009;28;20033;-72
2022/04/11 07:32:42;;;;;;;2.47;1.75;;;;;;;8.10;87.54;100384.56;5033215;28;20033;-72
2022/04/11 07:35:08;;;;;;;2.00;1.63;;;;;;;8.13;90.60;100388.94;5033060;28;20485;-70
2022/04/11 07:37:33;;;;;;;2.38;1.50;;;;;;;8.18;86.47;100393.47;5032819;28;20045;-70
2022/04/11 07:40:03;;;;;;;17.65;12.40;;;;;;;8.29;88.94;100395.66;5014396;28;20041;-72
2022/04/11 07:42:29;;;;;;;;;;;;;;;8.19;87.23;100397.81;5033125;28;20025;-76
2022/04/11 07:44:54;;;;;;;2.00;1.50;;;;;;;8.22;87.75;100371.34;5031922;28;20028;-75
2022/04/11 07:47:19;;;;;;;4.32;2.05;;;;;;;8.51;87.25;100403.56;5032888;28;20112;-75
2022/04/11 07:49:45;;;;;;;5.63;2.75;;;;;;;8.26;87.64;100370.66;5032849;28;20033;-76
2022/04/11 07:52:10;;;;;;;3.03;1.98;;;;;;;8.46;85.85;100424.72;5033125;28;20055;-75
2022/04/11 07:54:36;;;;;;;2.90;1.98;;;;;;;8.47;87.89;100419.66;5033321;28;20080;-73
2022/04/11 07:57:02;;;;;;;1.83;1.60;;;;;;;8.38;84.75;100407.22;5046953;28;20036;-74
2022/04/11 07:59:27;;;;;;;3.10;1.80;;;;;;;8.53;84.90;100426.78;5052368;28;20037;-74
2022/04/11 08:01:53;;;;;;;2.30;1.60;;;;;;;8.43;83.95;100416.03;5051211;28;20032;-75
2022/04/11 08:04:18;;;;;;;3.10;1.73;;;;;;;8.63;83.35;100428.06;5052389;28;20032;-74
2022/04/11 08:06:45;;;;;;;1.83;1.70;;;;;;;8.89;87.09;100445.50;5052670;28;20025;-74
2022/04/11 08:09:11;;;;;;;2.17;1.50;;;;;;;8.73;83.42;100441.41;5052736;28;20032;-74
2022/04/11 08:11:36;;;;;;;2.42;1.50;;;;;;;8.55;85.85;100387.44;5052290;28;20424;-74
2022/04/11 08:14:02;;;;;;;2.78;1.80;;;;;;;9.13;82.98;100439.66;5050839;28;20033;-74
2022/04/11 08:16:28;;;;;;;5.90;1.90;;;;;;;9.09;85.43;100436.91;5051973;28;20103;-75
2022/04/11 08:18:53;;;;;;;3.85;2.22;;;;;;;9.10;85.15;100443.78;5052085;28;20033;-74
2022/04/11 08:21:19;;;;;;;3.13;2.00;;;;;;;9.16;85.09;100442.38;5051869;28;20423;-74
2022/04/11 08:23:44;;;;;;;2.92;2.00;;;;;;;8.97;84.18;100448.44;5052127;28;20040;-74
2022/04/11 08:26:10;;;;;;;2.55;1.70;;;;;;;8.90;82.76;100470.47;5052093;28;20024;-74
2022/04/11 08:28:35;;;;;;;3.72;2.20;;;;;;;8.78;84.27;100458.75;5051726;28;20103;-74
2022/04/11 08:31:00;;;;;;;1.85;1.48;;;;;;;8.64;85.77;100447.84;5051682;28;20481;-74
2022/04/11 08:33:26;;;;;;;2.63;1.77;;;;;;;8.75;85.38;100454.34;5033505;28;20033;-74
2022/04/11 08:35:52;;;;;;;2.25;1.95;;;;;;;8.83;85.62;100480.41;5031794;28;20603;-74
2022/04/11 08:38:18;;;;;;;4.22;2.00;;;;;;;8.64;83.97;100474.47;5031151;28;20413;-74
2022/04/11 08:40:44;;;;;;;2.28;1.67;;;;;;;8.86;86.22;100491.75;5031780;28;20083;-74
2022/04/11 08:43:12;;;;;;;2.38;1.70;;;;;;;8.83;83.79;100478.72;5031528;28;20171;-72
2022/04/11 08:45:38;;;;;;;2.53;1.50;;;;;;;8.63;83.04;100487.25;5031747;28;20033;-74
2022/04/11 08:48:04;;;;;;;2.17;1.70;;;;;;;8.64;83.30;100481.31;5031570;28;20025;-75
2022/04/11 08:50:29;;;;;;;3.17;2.03;;;;;;;8.55;83.47;100477.50;5031680;28;20039;-74
2022/04/11 08:52:57;;;;;;;4.70;2.20;;;;;;;8.71;83.64;100494.50;5031600;28;20104;-74
2022/04/11 08:55:23;;;;;;;5.78;2.00;;;;;;;9.03;83.80;100494.16;5031122;28;20416;-74
2022/04/11 08:57:48;;;;;;;2.92;1.58;;;;;;;9.23;82.72;100495.03;5030420;28;20049;-74
2022/04/11 09:00:16;;;;;;;2.83;1.67;;;;;;;9.21;81.06;100473.50;5030132;28;20056;-75
2022/04/11 09:02:43;;;;;;;2.58;1.60;;;;;;;9.30;83.23;100502.19;5031281;28;20068;-75
2022/04/11 09:05:11;;;;;;;2.97;1.67;;;;;;;9.26;80.13;100486.53;5024019;28;20037;-74
2022/04/11 09:07:47;;;;;;;2.70;1.67;;;;;;;9.31;80.58;100503.97;5051163;28;20029;-75
2022/04/11 09:10:17;;;;;;;1.88;1.50;;;;;;;9.33;81.07;100504.03;5051045;28;20044;-74
2022/04/11 09:12:50;;;;;;;;;;;;;;;9.19;79.98;100512.03;5050162;28;20446;-75
2022/04/11 09:15:15;;;;;;;2.17;1.70;;;;;;;9.07;83.33;100514.06;5051081;28;19959;-75
2022/04/11 09:17:43;;;;;;;2.20;1.65;;;;;;;9.23;82.01;100502.75;5050939;28;20119;-74
2022/04/11 09:20:21;;;;;;;2.92;1.77;;;;;;;9.44;82.46;100507.94;5051286;28;20400;-74
2022/04/11 09:22:47;;;;;;;3.72;1.70;;;;;;;9.26;79.87;100494.25;5050826;28;20120;-74
2022/04/11 09:25:18;;;;;;;2.53;1.50;;;;;;;9.23;80.81;100492.44;5050775;28;20032;-74
2022/04/11 09:27:45;;;;;;;2.33;1.40;;;;;;;9.47;81.04;100522.63;5050869;28;20036;-74
2022/04/11 09:30:18;;;;;;;2.72;2.17;;;;;;;9.61;80.38;100521.53;5050811;28;20507;-75
2022/04/11 09:32:56;;;;;;;5.60;1.95;;;;;;;9.52;78.73;100513.41;5041877;28;20040;-70
2022/04/11 09:35:23;;;;;;;2.17;1.40;;;;;;;9.51;78.10;100530.56;5041204;28;20029;-73
2022/04/11 09:38:07;;;;;;;3.97;2.15;;;;;;;9.40;80.25;100531.81;5041467;28;20031;-74
2022/04/11 09:40:53;;;;;;;3.13;2.22;;;;;;;9.37;78.55;100542.88;5041634;28;20029;-75
2022/04/11 09:43:27;;;;;;;1.80;1.50;;;;;;;9.41;79.78;100494.03;5041464;28;20025;-76
2022/04/11 09:45:53;;;;;;;2.72;1.73;;;;;;;10.01;80.69;100542.91;5041257;28;20074;-74
2022/04/11 09:48:27;;;;;;;5.75;3.22;;;;;;;9.92;78.29;100548.59;5040497;28;20033;-75
2022/04/11 09:50:54;;;;;;;2.25;1.58;;;;;;;9.74;78.23;100553.84;5041423;28;20115;-73
2022/04/11 09:53:29;;;;;;;2.40;1.50;;;;;;;9.65;77.18;100563.78;5040595;28;20079;-73
2022/04/11 09:55:55;;;;;;;2.40;1.60;;;;;;;9.55;77.60;100563.38;5040817;28;20031;-73
2022/04/11 09:58:22;;;;;;;2.22;1.30;;;;;;;9.47;77.55;100562.19;5040498;28;20096;-74
2022/04/11 10:00:49;;;;;;;1.45;1.20;;;;;;;9.24;77.48;100530.28;5039127;28;20420;-74
2022/04/11 10:03:16;;;;;;;3.50;1.63;;;;;;;9.07;77.34;100529.53;5040976;28;20025;-74
2022/04/11 10:05:42;;;;;;;2.40;1.58;;;;;;;9.30;78.43;100586.34;5028974;28;20056;-74
2022/04/11 10:08:10;;;;;;;4.28;1.60;;;;;;;9.26;76.97;100574.13;5033823;28;20115;-72
2022/04/11 10:10:39;;;;;;;3.42;1.60;;;;;;;9.29;78.72;100579.44;5028866;28;20036;-71
2022/04/11 10:13:12;;;;;;;1.90;1.35;;;;;;;9.47;77.97;100585.38;5029438;28;20024;-75
2022/04/11 10:15:39;;;;;;;3.85;1.60;;;;;;;9.51;79.24;100574.38;5030172;28;20080;-74
2022/04/11 10:18:07;;;;;;;1.80;1.27;;;;;;;9.32;76.78;100593.34;5030190;28;20034;-75
2022/04/11 10:20:42;;;;;;;2.20;1.30;;;;;;;9.29;76.12;100593.19;5028892;28;20079;-74
2022/04/11 10:23:34;;;;;;;1.88;1.40;;;;;;;9.32;77.63;100607.88;5028872;28;20033;-75
2022/04/11 10:26:11;;;;;;;1.60;1.25;;;;;;;9.08;77.65;100564.78;5030222;28;20030;-75
2022/04/11 10:28:51;;;;;;;2.55;1.30;;;;;;;9.20;75.50;100574.75;5029342;28;20040;-73
2022/04/11 10:31:17;;;;;;;;;;;;;;;9.44;77.17;100607.56;5028343;28;20055;-72
2022/04/11 10:33:47;;;;;;;2.58;1.58;;;;;;;9.57;79.18;100596.97;5029381;28;20368;-77
2022/04/11 10:36:55;;;;;;;2.17;1.50;;;;;;;9.93;77.56;100606.19;5028944;28;20087;-76
2022/04/11 10:39:22;;;;;;;2.33;1.38;;;;;;;10.05;77.36;100588.66;4985310;28;20113;-75
2022/04/11 10:41:54;;;;;;;1.65;1.45;;;;;;;10.33;75.73;100607.81;4987093;28;20049;-75
2022/04/11 10:44:40;;;;;;;2.85;1.15;;;;;;;10.35;73.50;100612.25;4987208;28;20031;-74
2022/04/11 10:47:08;;;;;;;2.45;1.30;;;;;;;10.18;72.61;100614.13;4986985;28;20132;-74
2022/04/11 10:49:55;;;;;;;5.15;1.73;;;;;;;10.19;73.91;100620.16;4986918;28;20030;-74
2022/04/11 10:52:29;;;;;;;4.60;1.70;;;;;;;10.17;74.88;100621.81;4987030;28;20088;-75
2022/04/11 10:54:56;;;;;;;1.23;1.00;;;;;;;9.85;73.45;100629.09;4987364;28;20088;-76
2022/04/11 10:57:37;;;;;;;1.65;1.30;;;;;;;9.93;76.01;100627.72;4987052;28;20031;-74
2022/04/11 11:00:06;;;;;;;2.55;1.70;;;;;;;9.90;75.61;100640.47;4986896;28;20054;-74
2022/04/11 11:02:53;;;;;;;2.20;1.50;;;;;;;9.90;75.34;100637.03;4988645;28;20036;-74
2022/04/11 11:05:45;;;;;;;1.73;1.40;;;;;;;9.87;76.89;100635.19;4990721;28;20035;-71
2022/04/11 11:08:11;;;;;;;2.92;1.70;;;;;;;10.22;78.63;100643.53;4990128;28;20034;-73
2022/04/11 11:10:55;;;;;;;2.45;1.60;;;;;;;9.94;74.96;100636.31;4990129;28;20026;-76
2022/04/11 11:13:36;;;;;;;2.60;1.67;;;;;;;10.18;75.71;100647.66;5013015;28;20051;-74
2022/04/11 11:16:07;;;;;;;4.85;1.50;;;;;;;10.10;75.84;100618.09;5033280;28;20123;-70
2022/04/11 11:21:44;;;;;;;1.50;1.40;;;;;;;10.17;73.03;100642.47;5033030;28;20053;-74
2022/04/11 11:24:11;;;;;;;2.00;1.30;;;;;;;10.03;72.30;100623.81;5032871;28;20033;-75
2022/04/11 11:26:48;;;;;;;3.35;1.33;;;;;;;9.96;72.19;100609.78;5033166;28;20026;-73
2022/04/11 11:29:33;;;;;;;1.60;1.30;;;;;;;10.24;74.93;100651.31;5032681;28;20044;-74
2022/04/11 11:31:58;;;;;;;6.03;1.85;;;;;;;10.24;74.27;100644.44;5032279;28;20061;-72
2022/04/11 11:34:26;;;;;;;2.20;1.40;;;;;;;10.28;73.33;100636.03;5032356;28;20538;-73
2022/04/11 11:36:57;;;;;;;1.75;1.27;;;;;;;10.23;72.84;100645.28;5031839;28;20117;-72